createdAt,value
2019-01-08T00:01:11.111Z,9.60
2019-01-08T00:03:40.514Z,8.43
2019-01-08T00:06:10.003Z,8.50
2019-01-08T00:08:39.500Z,7.83
2019-01-08T00:11:08.959Z,8.97
2019-01-08T00:13:38.491Z,8.93
2019-01-08T00:16:07.946Z,8.03
2019-01-08T00:18:38.447Z,9.97
2019-01-08T00:21:07.944Z,9.60
2019-01-08T00:23:37.351Z,10.20
2019-01-08T00:26:06.833Z,10.43
2019-01-08T00:28:43.107Z,6.70
2019-01-08T00:31:07.547Z,9.40
2019-01-08T00:33:36.994Z,6.43
2019-01-08T00:36:06.487Z,9.70
2019-01-08T00:38:35.914Z,9.97
2019-01-08T00:41:05.372Z,8.80
2019-01-08T00:43:36.659Z,8.90
2019-01-08T00:46:06.093Z,8.87
2019-01-08T00:48:35.550Z,8.93
2019-01-08T00:51:05.056Z,9.47
2019-01-08T00:53:34.557Z,8.10
2019-01-08T00:56:04.014Z,9.10
2019-01-08T00:58:33.478Z,9.23
2019-01-08T01:01:02.933Z,9.67
2019-01-08T01:03:32.439Z,11.03
2019-01-08T01:06:01.948Z,9.83
2019-01-08T01:08:31.363Z,7.70
2019-01-08T01:11:00.817Z,8.27
2019-01-08T01:13:30.323Z,8.40
2019-01-08T01:15:59.830Z,10.83
2019-01-08T01:18:29.336Z,8.97
2019-01-08T01:20:58.875Z,8.17
2019-01-08T01:23:28.293Z,8.60
2019-01-08T01:25:57.770Z,10.40
2019-01-08T01:28:27.451Z,9.00
2019-01-08T01:30:56.919Z,8.67
2019-01-08T01:33:26.339Z,9.47
2019-01-08T01:35:55.854Z,8.73
2019-01-08T01:38:25.370Z,10.90
2019-01-08T01:40:54.849Z,8.87
2019-01-08T01:43:24.300Z,7.40
2019-01-08T01:45:53.754Z,8.83
2019-01-08T01:48:23.259Z,10.37
2019-01-08T01:50:52.821Z,10.00
2019-01-08T01:53:22.320Z,8.27
2019-01-08T01:55:51.775Z,9.37
2019-01-08T01:58:21.234Z,9.27
2019-01-08T02:00:50.723Z,9.13
2019-01-08T02:03:20.218Z,7.83
2019-01-08T02:05:49.698Z,8.40
2019-01-08T02:08:19.142Z,7.63
2019-01-08T02:10:48.581Z,8.77
2019-01-08T02:13:18.115Z,5.73
2019-01-08T02:15:47.589Z,7.80
2019-01-08T02:18:17.017Z,9.60
2019-01-08T02:20:46.521Z,9.17
2019-01-08T02:23:16.045Z,9.83
2019-01-08T02:25:45.499Z,8.63
2019-01-08T02:28:14.954Z,9.97
2019-01-08T02:30:44.415Z,9.63
2019-01-08T02:33:13.942Z,7.77
2019-01-08T02:35:43.432Z,10.27
2019-01-08T02:38:12.865Z,6.63
2019-01-08T02:40:42.389Z,8.37
2019-01-08T02:43:12.277Z,7.90
2019-01-08T02:45:41.768Z,10.60
2019-01-08T02:48:11.163Z,9.90
2019-01-08T02:50:40.730Z,9.30
2019-01-08T02:53:10.263Z,8.67
2019-01-08T02:55:39.745Z,8.67
2019-01-08T02:58:09.174Z,8.30
2019-01-08T03:00:38.650Z,9.60
2019-01-08T03:03:08.160Z,9.13
2019-01-08T03:05:37.637Z,10.00
2019-01-08T03:08:07.034Z,8.53
2019-01-08T03:10:37.009Z,8.53
2019-01-08T03:13:06.491Z,9.67
2019-01-08T03:15:35.964Z,9.70
2019-01-08T03:18:05.476Z,9.50
2019-01-08T03:20:34.985Z,11.27
2019-01-08T03:23:04.404Z,5.97
2019-01-08T03:25:33.874Z,11.00
2019-01-08T03:28:03.445Z,8.40
2019-01-08T03:30:32.893Z,9.67
2019-01-08T03:33:02.303Z,9.37
2019-01-08T03:35:31.825Z,9.23
2019-01-08T03:38:01.345Z,10.07
2019-01-08T03:40:30.810Z,7.43
2019-01-08T03:43:00.547Z,8.47
2019-01-08T03:45:29.992Z,8.10
2019-01-08T03:47:59.501Z,9.80
2019-01-08T03:50:28.974Z,6.73
2019-01-08T03:52:58.432Z,6.97
2019-01-08T03:55:27.877Z,7.50
2019-01-08T03:57:57.321Z,9.87
2019-01-08T04:00:26.770Z,6.47
2019-01-08T04:02:56.282Z,9.70
2019-01-08T04:05:25.813Z,9.77
2019-01-08T04:07:55.264Z,14.50
2019-01-08T04:10:24.737Z,10.90
2019-01-08T04:12:54.289Z,10.13
2019-01-08T04:15:23.818Z,9.23
2019-01-08T04:17:53.232Z,10.50
2019-01-08T04:20:22.741Z,10.30
2019-01-08T04:22:52.233Z,9.57
2019-01-08T04:25:21.671Z,10.73
2019-01-08T04:27:51.140Z,10.27
2019-01-08T04:30:20.579Z,13.23
2019-01-08T04:32:50.059Z,9.33
2019-01-08T04:35:19.563Z,9.73
2019-01-08T04:37:49.068Z,8.83
2019-01-08T04:40:18.876Z,8.90
2019-01-08T04:42:48.689Z,7.60
2019-01-08T04:45:18.145Z,10.43
2019-01-08T04:47:47.659Z,8.70
2019-01-08T04:50:17.136Z,11.83
2019-01-08T04:52:46.567Z,10.97
2019-01-08T04:55:16.141Z,9.43
2019-01-08T04:57:45.805Z,9.67
2019-01-08T05:00:15.305Z,8.50
2019-01-08T05:02:44.750Z,11.77
2019-01-08T05:05:14.265Z,9.77
2019-01-08T05:07:43.790Z,7.67
2019-01-08T05:10:13.233Z,9.20
2019-01-08T05:12:42.792Z,8.00
2019-01-08T05:15:12.256Z,7.93
2019-01-08T05:17:41.701Z,8.87
2019-01-08T05:20:11.194Z,10.10
2019-01-08T05:22:40.700Z,10.67
2019-01-08T05:25:10.164Z,8.73
2019-01-08T05:27:39.628Z,11.33
2019-01-08T05:30:10.186Z,10.33
2019-01-08T05:32:39.717Z,11.10
2019-01-08T05:35:09.319Z,8.33
2019-01-08T05:37:38.770Z,8.10
2019-01-08T05:40:08.261Z,10.13
2019-01-08T05:42:37.829Z,10.53
2019-01-08T05:45:08.573Z,10.13
2019-01-08T05:47:37.965Z,11.10
2019-01-08T05:50:07.777Z,10.17
2019-01-08T05:52:37.237Z,11.63
2019-01-08T05:55:06.838Z,9.60
2019-01-08T05:57:36.407Z,9.17
2019-01-08T06:00:16.310Z,11.23
2019-01-08T06:02:42.688Z,10.63
2019-01-08T06:05:12.256Z,14.70
2019-01-08T06:07:41.787Z,9.77
2019-01-08T06:10:11.310Z,11.77
2019-01-08T06:12:40.751Z,10.83
2019-01-08T06:15:10.387Z,12.57
2019-01-08T06:17:39.907Z,8.13
2019-01-08T06:20:09.633Z,10.73
2019-01-08T06:22:39.140Z,10.67
2019-01-08T06:25:09.416Z,10.27
2019-01-08T06:27:39.028Z,10.23
2019-01-08T06:30:08.965Z,11.37
2019-01-08T06:32:38.505Z,9.77
2019-01-08T06:35:08.056Z,9.10
2019-01-08T06:37:37.491Z,11.77
2019-01-08T06:40:07.073Z,10.87
2019-01-08T06:42:36.747Z,13.17
2019-01-08T06:45:06.783Z,10.73
2019-01-08T06:47:36.244Z,10.50
2019-01-08T06:50:06.936Z,9.67
2019-01-08T06:52:36.511Z,8.17
2019-01-08T06:55:06.907Z,11.90
2019-01-08T06:57:37.173Z,11.10
2019-01-08T07:00:07.770Z,9.73
2019-01-08T07:02:38.465Z,10.33
2019-01-08T07:05:08.115Z,11.77
2019-01-08T07:07:37.557Z,7.17
2019-01-08T07:10:07.755Z,7.67
2019-01-08T07:12:37.243Z,9.30
2019-01-08T07:15:06.999Z,10.87
2019-01-08T07:17:36.596Z,13.97
2019-01-08T07:20:06.427Z,8.60
2019-01-08T07:22:35.860Z,8.43
2019-01-08T07:25:05.624Z,7.87
2019-01-08T07:27:35.161Z,9.27
2019-01-08T07:30:04.765Z,8.97
2019-01-08T07:32:34.272Z,12.70
2019-01-08T07:35:19.332Z,12.80
2019-01-08T07:37:53.108Z,13.67
2019-01-08T07:40:22.666Z,13.80
2019-01-08T07:42:52.094Z,8.93
2019-01-08T07:45:21.650Z,11.20
2019-01-08T07:47:55.095Z,10.33
2019-01-08T07:50:24.640Z,9.23
2019-01-08T07:52:54.091Z,12.07
2019-01-08T07:55:23.557Z,8.83
2019-01-08T07:57:53.083Z,7.90
2019-01-08T08:00:22.592Z,8.30
2019-01-08T08:02:52.018Z,7.03
2019-01-08T08:05:21.515Z,9.03
2019-01-08T08:07:51.067Z,8.20
2019-01-08T08:10:20.528Z,10.53
2019-01-08T08:12:49.970Z,7.07
2019-01-08T08:15:19.588Z,10.70
2019-01-08T08:17:49.078Z,9.83
2019-01-08T08:20:18.529Z,9.83
2019-01-08T08:22:48.050Z,10.00
2019-01-08T08:25:17.564Z,13.57
2019-01-08T08:27:47.100Z,9.93
2019-01-08T08:30:16.704Z,10.40
2019-01-08T08:32:46.171Z,8.57
2019-01-08T08:35:15.731Z,10.37
2019-01-08T08:37:45.201Z,9.17
2019-01-08T08:40:14.697Z,8.97
2019-01-08T08:42:44.259Z,10.47
2019-01-08T08:45:13.779Z,10.63
2019-01-08T08:47:43.197Z,10.07
2019-01-08T08:50:12.740Z,10.70
2019-01-08T08:52:42.274Z,12.83
2019-01-08T08:55:11.751Z,9.73
2019-01-08T08:57:41.171Z,9.63
2019-01-08T09:00:11.157Z,10.80
2019-01-08T09:02:41.746Z,11.67
2019-01-08T09:05:11.214Z,9.63
2019-01-08T09:07:40.668Z,8.23
2019-01-08T09:10:10.134Z,11.50
2019-01-08T09:12:39.581Z,8.27
2019-01-08T09:15:09.228Z,10.27
2019-01-08T09:17:38.747Z,9.90
2019-01-08T09:20:09.298Z,12.13
2019-01-08T09:22:38.752Z,11.13
2019-01-08T09:25:08.769Z,10.47
2019-01-08T09:27:38.322Z,9.53
2019-01-08T09:30:09.023Z,10.57
2019-01-08T09:32:38.426Z,11.20
2019-01-08T09:35:08.020Z,11.10
2019-01-08T09:37:37.561Z,9.67
2019-01-08T09:40:07.033Z,10.73
2019-01-08T09:42:36.530Z,11.00
2019-01-08T09:45:07.387Z,6.70
2019-01-08T09:47:36.909Z,10.40
2019-01-08T09:50:07.590Z,11.13
2019-01-08T09:52:37.115Z,14.43
2019-01-08T09:55:06.839Z,8.77
2019-01-08T09:57:36.239Z,8.53
2019-01-08T10:00:06.286Z,10.40
2019-01-08T10:02:35.799Z,9.40
2019-01-08T10:05:05.834Z,12.57
2019-01-08T10:07:35.280Z,9.10
2019-01-08T10:10:04.923Z,9.37
2019-01-08T10:12:34.429Z,11.50
2019-01-08T10:15:03.922Z,10.87
2019-01-08T10:17:33.329Z,9.20
2019-01-08T10:20:03.805Z,11.70
2019-01-08T10:22:33.756Z,12.53
2019-01-08T10:25:03.173Z,10.57
2019-01-08T10:27:32.572Z,9.50
2019-01-08T10:30:02.139Z,11.97
2019-01-08T10:32:31.720Z,10.90
2019-01-08T10:35:01.126Z,9.53
2019-01-08T10:37:30.587Z,12.47
2019-01-08T10:40:01.529Z,13.07
2019-01-08T10:42:31.344Z,10.10
2019-01-08T10:45:00.806Z,11.90
2019-01-08T10:47:30.225Z,9.10
2019-01-08T10:49:59.782Z,9.53
2019-01-08T10:52:29.328Z,8.53
2019-01-08T10:54:58.786Z,10.80
2019-01-08T10:57:28.175Z,10.07
2019-01-08T10:59:57.730Z,11.37
2019-01-08T11:02:27.215Z,9.60
2019-01-08T11:04:56.643Z,9.87
2019-01-08T11:07:26.082Z,11.83
2019-01-08T11:09:55.581Z,13.27
2019-01-08T11:12:24.977Z,11.00
2019-01-08T11:14:54.506Z,10.70
2019-01-08T11:17:24.045Z,10.83
2019-01-08T11:19:53.447Z,10.73
2019-01-08T11:22:22.928Z,10.07
2019-01-08T11:24:52.566Z,10.03
2019-01-08T11:27:22.058Z,13.97
2019-01-08T11:29:51.550Z,12.97
2019-01-08T11:32:20.962Z,13.80
2019-01-08T11:34:50.457Z,12.47
2019-01-08T11:37:19.994Z,12.53
2019-01-08T11:39:49.396Z,10.83
2019-01-08T11:42:18.907Z,10.90
2019-01-08T11:44:48.446Z,11.47
2019-01-08T11:47:17.974Z,10.00
2019-01-08T11:49:47.351Z,11.70
2019-01-08T11:52:16.897Z,10.33
2019-01-08T11:54:46.310Z,11.03
2019-01-08T11:57:15.699Z,15.10
2019-01-08T11:59:45.409Z,10.67
2019-01-08T12:02:14.933Z,10.97
2019-01-08T12:04:44.320Z,10.50
2019-01-08T12:07:13.767Z,9.67
2019-01-08T12:09:43.279Z,10.53
2019-01-08T12:12:12.774Z,11.60
2019-01-08T12:14:42.231Z,11.37
2019-01-08T12:17:11.672Z,10.83
2019-01-08T12:19:41.155Z,10.20
2019-01-08T12:22:10.811Z,10.17
2019-01-08T12:24:40.348Z,14.20
2019-01-08T12:27:09.785Z,11.93
2019-01-08T12:29:39.333Z,12.13
2019-01-08T12:32:08.800Z,10.90
2019-01-08T12:34:38.310Z,12.47
2019-01-08T12:37:07.873Z,12.80
2019-01-08T12:39:37.258Z,12.70
2019-01-08T12:42:06.675Z,13.20
2019-01-08T12:44:36.295Z,11.77
2019-01-08T12:47:05.915Z,12.33
2019-01-08T12:49:35.310Z,12.80
2019-01-08T12:52:04.776Z,13.33
2019-01-08T12:54:34.384Z,14.07
2019-01-08T12:57:03.919Z,11.57
2019-01-08T12:59:33.441Z,13.20
2019-01-08T13:02:02.918Z,13.20
2019-01-08T13:04:32.442Z,12.10
2019-01-08T13:07:02.018Z,12.57
2019-01-08T13:09:31.411Z,12.53
2019-01-08T13:12:00.820Z,20.80
2019-01-08T13:14:30.385Z,12.47
2019-01-08T13:16:59.898Z,11.40
2019-01-08T13:19:29.332Z,12.77
2019-01-08T13:21:58.781Z,11.13
2019-01-08T13:24:28.305Z,13.27
2019-01-08T13:26:57.868Z,12.80
2019-01-08T13:29:27.297Z,15.73
2019-01-08T13:31:56.742Z,13.10
2019-01-08T13:34:26.220Z,12.87
2019-01-08T13:36:55.784Z,13.17
2019-01-08T13:39:25.183Z,32.77
2019-01-08T13:41:54.579Z,16.33
2019-01-08T13:44:24.140Z,19.70
2019-01-08T13:46:53.683Z,15.33
2019-01-08T13:49:23.134Z,15.67
2019-01-08T13:51:52.677Z,19.40
2019-01-08T13:54:22.088Z,15.40
2019-01-08T13:56:51.481Z,15.73
2019-01-08T13:59:21.020Z,16.17
2019-01-08T14:01:50.511Z,12.70
2019-01-08T14:04:21.219Z,58.47
2019-01-08T14:06:50.704Z,42.87
2019-01-08T14:09:20.189Z,19.47
2019-01-08T14:11:49.696Z,13.87
2019-01-08T14:14:19.125Z,15.17
2019-01-08T14:16:48.566Z,19.67
2019-01-08T14:19:18.214Z,15.73
2019-01-08T14:21:47.784Z,79.77
2019-01-08T14:24:17.234Z,19.60
2019-01-08T14:26:46.689Z,17.70
2019-01-08T14:29:16.285Z,15.77
2019-01-08T14:31:45.690Z,15.50
2019-01-08T14:34:15.266Z,17.30
2019-01-08T14:36:44.838Z,18.60
2019-01-08T14:39:14.285Z,23.03
2019-01-08T14:41:43.699Z,17.10
2019-01-08T14:44:13.264Z,15.87
2019-01-08T14:46:42.781Z,17.40
2019-01-08T14:49:12.187Z,15.60
2019-01-08T14:51:41.645Z,25.33
2019-01-08T14:54:11.145Z,16.70
2019-01-08T14:56:40.648Z,20.10
2019-01-08T14:59:10.102Z,26.97
2019-01-08T15:01:39.519Z,28.33
2019-01-08T15:04:09.036Z,21.93
2019-01-08T15:06:38.719Z,21.30
2019-01-08T15:09:08.953Z,24.20
2019-01-08T15:11:38.548Z,20.47
2019-01-08T15:14:08.152Z,23.43
2019-01-08T15:16:37.655Z,23.60
2019-01-08T15:19:07.266Z,25.00
2019-01-08T15:21:36.914Z,29.33
2019-01-08T15:24:06.370Z,28.03
2019-01-08T15:26:35.753Z,23.77
2019-01-08T15:29:05.321Z,25.17
2019-01-08T15:31:34.840Z,24.53
2019-01-08T15:34:04.320Z,24.07
2019-01-08T15:36:33.845Z,24.67
2019-01-08T15:39:03.836Z,28.57
2019-01-08T15:41:33.330Z,25.80
2019-01-08T15:44:02.784Z,26.60
2019-01-08T15:46:32.331Z,26.37
2019-01-08T15:49:01.839Z,27.10
2019-01-08T15:51:31.221Z,27.30
2019-01-08T15:54:03.115Z,26.33
2019-01-08T15:56:32.606Z,28.93
2019-01-08T15:59:02.021Z,26.73
2019-01-08T16:01:31.495Z,27.83
2019-01-08T16:04:02.335Z,25.73
2019-01-08T16:06:31.935Z,28.87
2019-01-08T16:09:01.409Z,25.50
2019-01-08T16:11:30.819Z,25.97
2019-01-08T16:14:00.331Z,26.87
2019-01-08T16:16:29.893Z,28.47
2019-01-08T16:18:59.294Z,30.70
2019-01-08T16:21:28.698Z,30.90
2019-01-08T16:23:58.304Z,32.63
2019-01-08T16:26:27.951Z,39.90
2019-01-08T16:28:57.388Z,35.80
2019-01-08T16:31:27.063Z,32.90
2019-01-08T16:33:56.542Z,38.13
2019-01-08T16:36:25.973Z,30.97
2019-01-08T16:38:55.525Z,34.33
2019-01-08T16:41:25.036Z,35.20
2019-01-08T16:43:54.453Z,39.80
2019-01-08T16:46:23.941Z,39.80
2019-01-08T16:48:53.678Z,33.77
2019-01-08T16:51:23.190Z,37.57
2019-01-08T16:53:52.678Z,35.20
2019-01-08T16:56:22.078Z,32.67
2019-01-08T16:58:51.592Z,27.27
2019-01-08T17:01:21.142Z,23.50
2019-01-08T17:03:50.542Z,21.93
2019-01-08T17:06:19.928Z,20.57
2019-01-08T17:08:49.478Z,19.27
2019-01-08T17:11:18.884Z,18.73
2019-01-08T17:13:48.493Z,21.10
2019-01-08T17:16:18.052Z,21.30
2019-01-08T17:18:47.501Z,21.37
2019-01-08T17:21:16.903Z,29.43
2019-01-08T17:23:47.652Z,36.77
2019-01-08T17:26:17.212Z,49.43
2019-01-08T17:28:46.692Z,53.20
2019-01-08T17:31:16.142Z,59.40
2019-01-08T17:33:45.676Z,49.30
2019-01-08T17:36:15.199Z,49.50
2019-01-08T17:38:44.649Z,52.70
2019-01-08T17:41:14.129Z,52.60
2019-01-08T17:43:43.631Z,53.87
2019-01-08T17:46:13.197Z,50.03
2019-01-08T17:48:42.592Z,50.33
2019-01-08T17:51:12.086Z,49.77
2019-01-08T17:53:41.524Z,51.17
2019-01-08T17:56:10.936Z,58.10
2019-01-08T17:58:42.731Z,62.03
2019-01-08T18:01:21.755Z,51.40
2019-01-08T18:03:51.239Z,45.67
2019-01-08T18:06:20.655Z,40.93
2019-01-08T18:08:50.181Z,41.70
2019-01-08T18:11:19.802Z,38.20
2019-01-08T18:13:49.430Z,33.60
2019-01-08T18:16:18.898Z,30.23
2019-01-08T18:18:48.412Z,30.03
2019-01-08T18:21:17.919Z,30.90
2019-01-08T18:23:47.378Z,29.87
2019-01-08T18:26:16.935Z,31.83
2019-01-08T18:28:47.059Z,29.70
2019-01-08T18:31:16.603Z,30.30
2019-01-08T18:33:51.362Z,32.10
2019-01-08T18:36:17.280Z,39.07
2019-01-08T18:38:46.860Z,38.00
2019-01-08T18:41:16.366Z,39.67
2019-01-08T18:43:45.796Z,35.80
2019-01-08T18:46:15.382Z,36.20
2019-01-08T18:48:44.955Z,36.63
2019-01-08T18:51:15.244Z,39.00
2019-01-08T18:53:44.701Z,39.27
2019-01-08T18:56:14.176Z,38.50
2019-01-08T18:58:43.702Z,35.13
2019-01-08T19:01:13.554Z,38.47
2019-01-08T19:03:42.964Z,36.53
2019-01-08T19:06:12.447Z,30.10
2019-01-08T19:09:16.973Z,28.80
2019-01-08T19:11:46.379Z,26.63
2019-01-08T19:14:16.669Z,30.10
2019-01-08T19:16:46.245Z,29.73
2019-01-08T19:19:15.665Z,31.83
2019-01-08T19:21:45.069Z,33.33
2019-01-08T19:24:14.620Z,30.50
2019-01-08T19:26:44.137Z,27.07
2019-01-08T19:29:13.529Z,27.77
2019-01-08T19:31:42.975Z,28.87
2019-01-08T19:34:12.475Z,30.13
2019-01-08T19:36:42.032Z,28.77
2019-01-08T19:39:11.490Z,28.00
2019-01-08T19:41:40.914Z,27.33
2019-01-08T19:44:10.427Z,23.87
2019-01-08T19:46:40.011Z,25.33
2019-01-08T19:49:09.446Z,28.27
2019-01-08T19:51:38.985Z,29.07
2019-01-08T19:54:08.585Z,22.00
2019-01-08T19:56:37.989Z,24.90
2019-01-08T19:59:07.793Z,23.33
2019-01-08T20:01:37.316Z,22.73
2019-01-08T20:04:06.754Z,19.77
2019-01-08T20:06:36.192Z,23.50
2019-01-08T20:09:07.886Z,20.63
2019-01-08T20:11:37.410Z,22.83
2019-01-08T20:14:07.932Z,24.47
2019-01-08T20:16:37.548Z,26.87
2019-01-08T20:19:07.052Z,27.23
2019-01-08T20:21:36.561Z,29.30
2019-01-08T20:24:06.698Z,37.20
2019-01-08T20:26:36.205Z,32.67
2019-01-08T20:29:05.694Z,26.37
2019-01-08T20:31:35.295Z,26.03
2019-01-08T20:34:04.786Z,27.40
2019-01-08T20:36:34.369Z,27.77
2019-01-08T20:39:04.310Z,20.83
2019-01-08T20:41:33.736Z,22.23
2019-01-08T20:44:03.305Z,19.50
2019-01-08T20:46:32.849Z,19.47
2019-01-08T20:49:02.230Z,18.67
2019-01-08T20:51:31.773Z,16.37
2019-01-08T20:54:01.306Z,18.03
2019-01-08T20:56:30.828Z,17.20
2019-01-08T20:59:00.273Z,17.50
2019-01-08T21:01:29.846Z,20.33
2019-01-08T21:03:59.363Z,20.60
2019-01-08T21:06:28.876Z,21.53
2019-01-08T21:08:58.322Z,24.80
2019-01-08T21:11:27.830Z,21.57
2019-01-08T21:13:57.253Z,32.77
2019-01-08T21:16:26.779Z,27.80
2019-01-08T21:18:56.344Z,31.90
2019-01-08T21:21:28.953Z,32.43
2019-01-08T21:23:58.403Z,33.77
2019-01-08T21:26:31.414Z,44.27
2019-01-08T21:29:00.936Z,50.73
2019-01-08T21:31:32.840Z,48.50
2019-01-08T21:34:02.253Z,50.33
2019-01-08T21:36:31.676Z,51.67
2019-01-08T21:39:01.235Z,47.90
2019-01-08T21:41:30.738Z,50.70
2019-01-08T21:44:00.145Z,51.17
2019-01-08T21:46:29.700Z,55.50
2019-01-08T21:48:59.252Z,52.83
2019-01-08T21:51:28.753Z,55.90
2019-01-08T21:53:58.335Z,50.57
2019-01-08T21:56:27.837Z,53.00
2019-01-08T21:58:57.252Z,49.07
2019-01-08T22:01:26.713Z,48.50
2019-01-08T22:03:56.252Z,50.43
2019-01-08T22:06:25.751Z,50.97
2019-01-08T22:08:55.196Z,50.10
2019-01-08T22:11:24.634Z,43.23
2019-01-08T22:13:54.139Z,38.13
2019-01-08T22:16:23.670Z,33.17
2019-01-08T22:18:54.175Z,29.63
2019-01-08T22:21:23.594Z,30.77
2019-01-08T22:23:53.342Z,30.87
2019-01-08T22:26:22.926Z,30.10
2019-01-08T22:28:52.658Z,31.13
2019-01-08T22:31:22.212Z,30.97
2019-01-08T22:33:51.613Z,31.43
2019-01-08T22:36:21.356Z,31.53
2019-01-08T22:38:50.879Z,34.67
2019-01-08T22:41:20.518Z,31.87
2019-01-08T22:44:01.409Z,33.40
2019-01-08T22:46:31.241Z,31.47
2019-01-08T22:49:01.067Z,32.10
2019-01-08T22:51:30.605Z,32.07
2019-01-08T22:54:00.012Z,31.30
2019-01-08T22:56:30.725Z,28.90
2019-01-08T22:59:00.406Z,28.83
2019-01-08T23:01:34.663Z,30.87
2019-01-08T23:04:04.533Z,27.07
2019-01-08T23:06:33.951Z,26.93
2019-01-08T23:09:03.995Z,29.43
2019-01-08T23:11:33.420Z,28.13
2019-01-08T23:14:03.043Z,26.90
2019-01-08T23:16:32.523Z,32.67
2019-01-08T23:19:01.961Z,32.17
2019-01-08T23:21:31.448Z,31.23
2019-01-08T23:24:01.016Z,34.17
2019-01-08T23:26:30.699Z,29.20
2019-01-08T23:29:00.141Z,31.77
2019-01-08T23:31:29.537Z,30.20
2019-01-08T23:33:59.084Z,29.77
2019-01-08T23:36:28.579Z,27.17
2019-01-08T23:38:57.988Z,30.00
2019-01-08T23:41:27.457Z,28.90
2019-01-08T23:43:56.950Z,29.57
2019-01-08T23:46:26.455Z,29.13
2019-01-08T23:48:55.887Z,28.77
2019-01-08T23:51:25.372Z,29.97
2019-01-08T23:53:56.340Z,30.07
2019-01-08T23:56:27.305Z,29.73
2019-01-08T23:58:56.707Z,30.33
